Time;durP1;ratioP1;P1;durP2;ratioP2;P2;SDS_P1;SDS_P2;PMS_P1;PMS_P2;Temp;Humidity;BMP_temperature;BMP_pressure;BME280_temperature;BME280_humidity;BME280_pressure;Samples;Min_cycle;Max_cycle;Signal;HPM_P1;HPM_P2
2023/03/30 00:00:41;;;;;;;7.07;3.97;;;11.20;82.80;;;;;;4971313;28;20101;-82
2023/03/30 00:03:07;;;;;;;6.97;3.95;;;11.10;82.80;;;;;;4956191;28;20015;-82
2023/03/30 00:05:33;;;;;;;5.95;3.45;;;11.20;82.80;;;;;;4971547;28;20174;-79
2023/03/30 00:07:59;;;;;;;5.93;3.58;;;11.10;82.80;;;;;;4971956;28;20034;-82
2023/03/30 00:10:26;;;;;;;6.60;3.65;;;11.20;82.80;;;;;;4970999;28;20028;-82
2023/03/30 00:12:51;;;;;;;6.30;3.53;;;11.20;82.80;;;;;;4970777;28;20062;-82
2023/03/30 00:15:19;;;;;;;6.50;4.10;;;11.20;82.80;;;;;;4956820;29;20048;-81
2023/03/30 00:17:45;;;;;;;5.70;3.50;;;11.10;82.80;;;;;;4971771;28;20023;-82
2023/03/30 00:20:12;;;;;;;6.18;3.60;;;11.20;82.80;;;;;;4961243;29;20047;-80
2023/03/30 00:22:39;;;;;;;6.13;3.92;;;11.00;82.80;;;;;;4990056;28;20046;-83
2023/03/30 00:25:07;;;;;;;6.18;3.63;;;11.20;82.90;;;;;;4983710;28;20023;-82
2023/03/30 00:27:33;;;;;;;6.18;3.63;;;11.10;82.80;;;;;;4983997;28;20018;-83
2023/03/30 00:29:59;;;;;;;6.00;3.60;;;11.20;82.80;;;;;;4982777;28;20173;-83
2023/03/30 00:32:24;;;;;;;6.18;3.50;;;11.10;82.80;;;;;;4982036;28;20030;-82
2023/03/30 00:34:50;;;;;;;6.10;3.75;;;11.20;82.90;;;;;;4974923;28;20030;-81
2023/03/30 00:37:16;;;;;;;5.85;3.45;;;11.20;82.90;;;;;;4979037;28;20090;-82
2023/03/30 00:39:42;;;;;;;5.93;3.60;;;11.20;82.90;;;;;;4980900;28;20034;-83
2023/03/30 00:42:14;;;;;;;6.05;3.55;;;11.20;82.90;;;;;;4980642;28;20471;-82
2023/03/30 00:45:04;;;;;;;5.63;3.25;;;11.10;82.90;;;;;;4981399;28;20014;-83
2023/03/30 00:47:30;;;;;;;5.43;3.40;;;11.20;82.90;;;;;;4980003;28;20027;-82
2023/03/30 00:49:57;;;;;;;6.05;3.17;;;11.10;82.90;;;;;;4980240;28;20550;-82
2023/03/30 00:52:23;;;;;;;6.30;3.47;;;11.20;82.90;;;;;;4982655;28;20030;-83
2023/03/30 00:54:51;;;;;;;5.20;3.30;;;11.20;82.90;;;;;;4982465;28;20026;-82
2023/03/30 00:57:19;;;;;;;5.60;3.20;;;11.20;82.90;;;;;;4981771;28;20113;-80
2023/03/30 00:59:46;;;;;;;5.30;3.30;;;11.10;82.90;;;;;;4980285;28;20086;-84
2023/03/30 01:02:11;;;;;;;5.30;3.13;;;11.20;83.00;;;;;;4980895;28;20015;-82
2023/03/30 01:04:37;;;;;;;5.38;3.20;;;11.20;83.00;;;;;;4981138;28;20042;-82
2023/03/30 01:07:04;;;;;;;5.40;3.20;;;11.10;83.00;;;;;;4979926;28;20034;-82
2023/03/30 01:09:30;;;;;;;7.22;3.78;;;11.20;83.00;;;;;;4981517;28;20022;-84
2023/03/30 01:11:55;;;;;;;6.00;3.53;;;11.10;82.90;;;;;;4984535;28;20026;-83
2023/03/30 01:14:21;;;;;;;5.95;3.50;;;11.20;83.00;;;;;;4984656;28;20078;-83
2023/03/30 01:16:52;;;;;;;5.53;3.13;;;11.20;83.00;;;;;;4983501;28;20034;-82
2023/03/30 01:19:18;;;;;;;4.90;2.85;;;11.10;83.00;;;;;;4981502;28;20019;-84
2023/03/30 01:22:11;;;;;;;6.18;3.42;;;11.10;82.90;;;;;;4982545;28;20046;-84
2023/03/30 01:24:57;;;;;;;5.63;3.30;;;11.20;83.00;;;;;;4982459;28;20023;-83
2023/03/30 01:28:00;;;;;;;5.55;3.10;;;11.20;83.00;;;;;;4972926;28;20070;-82
2023/03/30 01:30:32;;;;;;;5.03;2.95;;;11.20;83.00;;;;;;4981333;28;20511;-83
2023/03/30 01:33:27;;;;;;;5.00;3.00;;;11.10;83.00;;;;;;4980343;28;20027;-83
2023/03/30 01:36:02;;;;;;;5.72;3.25;;;11.20;83.10;;;;;;4981836;28;20140;-84
2023/03/30 01:38:51;;;;;;;5.80;3.20;;;11.20;83.10;;;;;;4981111;28;20019;-81
2023/03/30 01:41:55;;;;;;;6.35;3.45;;;11.10;83.00;;;;;;4978410;28;20031;-82
2023/03/30 01:44:32;;;;;;;4.82;2.78;;;11.10;83.10;;;;;;4981310;28;20023;-82
2023/03/30 01:47:11;;;;;;;5.28;3.00;;;11.20;83.10;;;;;;4975295;28;20034;-81
2023/03/30 01:49:48;;;;;;;5.15;2.75;;;11.20;83.10;;;;;;4975417;28;20380;-83
2023/03/30 01:52:22;;;;;;;5.50;3.13;;;11.20;83.10;;;;;;4980058;28;20395;-82
2023/03/30 01:54:55;;;;;;;5.40;2.75;;;11.20;83.10;;;;;;4982052;28;20018;-81
2023/03/30 01:57:30;;;;;;;5.30;3.10;;;11.20;83.10;;;;;;4982010;28;20015;-82
2023/03/30 02:00:12;;;;;;;5.28;2.88;;;11.20;83.10;;;;;;4981622;28;20034;-82
2023/03/30 02:02:53;;;;;;;4.95;2.85;;;11.20;83.10;;;;;;4982046;28;20054;-81
2023/03/30 02:05:21;;;;;;;5.47;2.97;;;11.20;83.10;;;;;;4977082;28;20117;-81
2023/03/30 02:07:52;;;;;;;5.50;3.00;;;11.20;83.10;;;;;;4976814;28;20030;-82
2023/03/30 02:10:20;;;;;;;4.85;2.67;;;11.20;83.10;;;;;;4977615;28;20081;-79
2023/03/30 02:12:46;;;;;;;5.07;2.60;;;11.20;83.10;;;;;;4976514;28;20394;-81
2023/03/30 02:15:15;;;;;;;4.68;2.85;;;11.20;83.10;;;;;;4980139;28;20027;-82
2023/03/30 02:17:41;;;;;;;4.70;2.70;;;11.20;83.10;;;;;;4976825;28;20030;-82
2023/03/30 02:20:11;;;;;;;5.82;2.70;;;11.20;83.10;;;;;;4979413;28;20077;-81
2023/03/30 02:22:37;;;;;;;5.53;2.90;;;11.20;83.10;;;;;;4976823;28;20097;-80
2023/03/30 02:25:04;;;;;;;4.53;2.55;;;11.20;83.10;;;;;;4976776;28;20541;-82
2023/03/30 02:27:32;;;;;;;4.32;2.40;;;11.20;83.10;;;;;;4976723;28;20029;-82
2023/03/30 02:29:58;;;;;;;5.93;2.85;;;11.20;83.20;;;;;;4977061;28;20054;-81
2023/03/30 02:32:27;;;;;;;5.90;2.67;;;11.10;83.10;;;;;;4978790;28;20015;-82
2023/03/30 02:35:17;;;;;;;4.78;2.28;;;11.20;83.20;;;;;;4978228;28;20375;-81
2023/03/30 02:38:09;;;;;;;5.03;2.78;;;11.20;83.10;;;;;;4976626;28;20015;-82
2023/03/30 02:41:00;;;;;;;5.55;2.60;;;11.20;83.20;;;;;;4975904;28;20023;-80
2023/03/30 02:43:31;;;;;;;3.70;2.30;;;11.20;83.20;;;;;;4976401;28;20022;-82
2023/03/30 02:46:22;;;;;;;4.77;2.73;;;11.20;83.20;;;;;;4977773;28;20034;-82
2023/03/30 02:49:16;;;;;;;4.95;2.72;;;11.20;83.20;;;;;;4976867;28;20273;-81
2023/03/30 02:51:45;;;;;;;5.15;2.90;;;11.20;83.20;;;;;;4976759;28;20126;-82
2023/03/30 02:54:32;;;;;;;4.22;2.45;;;11.20;83.20;;;;;;4975336;28;20023;-83
2023/03/30 02:57:18;;;;;;;4.68;2.47;;;11.20;83.20;;;;;;4975226;28;20026;-82
2023/03/30 02:59:50;;;;;;;4.72;2.70;;;11.20;83.20;;;;;;4977838;28;20651;-82
2023/03/30 03:02:22;;;;;;;5.00;2.60;;;11.20;83.20;;;;;;4977109;28;20019;-82
2023/03/30 03:04:51;;;;;;;4.50;2.40;;;11.20;83.20;;;;;;4977446;28;20015;-81
2023/03/30 03:07:19;;;;;;;4.93;2.58;;;11.20;83.20;;;;;;4976881;28;20065;-81
2023/03/30 03:09:44;;;;;;;5.57;2.45;;;11.20;83.20;;;;;;4977629;28;20019;-83
2023/03/30 03:12:11;;;;;;;5.07;2.55;;;11.20;83.20;;;;;;4976430;28;20033;-82
2023/03/30 03:14:38;;;;;;;4.97;2.60;;;11.20;83.20;;;;;;4977185;28;20069;-82
2023/03/30 03:17:04;;;;;;;4.75;2.40;;;11.20;83.20;;;;;;4976821;28;20039;-82
2023/03/30 03:19:30;;;;;;;5.25;2.63;;;11.20;83.20;;;;;;4976478;28;20435;-82
2023/03/30 03:21:55;;;;;;;5.75;2.65;;;11.20;83.20;;;;;;4974913;28;20077;-81
2023/03/30 03:24:21;;;;;;;4.68;2.50;;;11.20;83.20;;;;;;4975987;28;20464;-82
2023/03/30 03:26:46;;;;;;;4.72;2.30;;;11.20;83.20;;;;;;4976068;28;20027;-82
2023/03/30 03:29:12;;;;;;;5.22;2.47;;;11.20;83.20;;;;;;4976626;28;20074;-81
2023/03/30 03:31:38;;;;;;;4.32;2.33;;;11.20;83.20;;;;;;4975128;28;20384;-82
2023/03/30 03:34:03;;;;;;;4.05;2.25;;;11.20;83.20;;;;;;4975886;28;20022;-82
2023/03/30 03:36:29;;;;;;;4.90;2.60;;;11.20;83.20;;;;;;4975323;28;20030;-82
2023/03/30 03:38:55;;;;;;;4.85;2.65;;;11.20;83.20;;;;;;4975535;28;20023;-82
2023/03/30 03:41:20;;;;;;;5.25;2.42;;;11.20;83.20;;;;;;4976883;28;20025;-82
2023/03/30 03:43:46;;;;;;;5.03;2.47;;;11.30;83.30;;;;;;4975384;28;20517;-82
2023/03/30 03:46:11;;;;;;;5.38;2.40;;;11.20;83.20;;;;;;4975614;28;20537;-81
2023/03/30 03:48:38;;;;;;;4.60;2.55;;;11.20;83.30;;;;;;4980169;28;20019;-83
2023/03/30 03:51:04;;;;;;;4.47;2.40;;;11.20;83.20;;;;;;4983118;28;20081;-83
2023/03/30 03:53:30;;;;;;;4.43;2.53;;;11.20;83.20;;;;;;4982600;28;20023;-83
2023/03/30 03:55:55;;;;;;;4.50;2.35;;;11.20;83.20;;;;;;4982628;28;20487;-82
2023/03/30 03:58:22;;;;;;;5.10;2.60;;;11.20;83.20;;;;;;4983446;28;20015;-83
2023/03/30 04:00:47;;;;;;;4.32;2.30;;;11.20;83.20;;;;;;4980394;28;20031;-82
2023/03/30 04:03:13;;;;;;;5.20;2.58;;;11.10;83.10;;;;;;4974263;28;20133;-82
2023/03/30 04:05:39;;;;;;;4.70;2.65;;;11.20;83.20;;;;;;4981749;28;20030;-83
2023/03/30 04:08:09;;;;;;;4.68;2.30;;;11.20;83.30;;;;;;4982601;28;20027;-82
2023/03/30 04:10:36;;;;;;;5.20;2.75;;;11.20;83.20;;;;;;4982259;28;20029;-81
2023/03/30 04:13:02;;;;;;;5.85;2.72;;;11.20;83.30;;;;;;4975439;28;20114;-82
2023/03/30 04:15:27;;;;;;;5.07;2.50;;;11.20;83.20;;;;;;4978877;28;20454;-82
2023/03/30 04:17:56;;;;;;;5.35;2.80;;;11.20;83.80;;;;;;4980385;28;20118;-82
2023/03/30 04:20:24;;;;;;;4.45;2.45;;;11.20;83.70;;;;;;4980116;28;20019;-83
2023/03/30 04:22:52;;;;;;;5.50;2.67;;;11.20;83.20;;;;;;4979732;28;20023;-82
2023/03/30 04:25:24;;;;;;;4.63;2.50;;;11.20;83.20;;;;;;4979957;28;20031;-82
2023/03/30 04:27:50;;;;;;;4.95;2.55;;;11.20;83.20;;;;;;4978207;28;20467;-83
2023/03/30 04:30:17;;;;;;;5.43;2.40;;;11.20;83.20;;;;;;4978287;28;20089;-78
2023/03/30 04:32:45;;;;;;;4.95;2.53;;;11.20;83.20;;;;;;4974664;28;20022;-78
2023/03/30 04:35:13;;;;;;;4.80;2.75;;;11.20;83.20;;;;;;4971675;28;20483;-79
2023/03/30 04:37:40;;;;;;;5.00;2.58;;;11.20;83.30;;;;;;4972181;28;20395;-79
2023/03/30 04:40:11;;;;;;;6.05;2.92;;;11.20;83.20;;;;;;4985522;28;20018;-84
2023/03/30 04:42:40;;;;;;;5.87;2.73;;;11.20;83.20;;;;;;4979784;28;20027;-82
2023/03/30 04:45:07;;;;;;;5.38;2.97;;;11.20;83.30;;;;;;4968310;28;20277;-83
2023/03/30 04:47:34;;;;;;;4.55;2.30;;;11.20;83.20;;;;;;4972875;28;20750;-80
2023/03/30 04:50:01;;;;;;;4.50;2.50;;;11.20;83.20;;;;;;4979666;28;20027;-81
2023/03/30 04:52:27;;;;;;;5.80;2.88;;;11.20;83.20;;;;;;4995233;28;20113;-80
2023/03/30 04:54:53;;;;;;;5.07;2.65;;;11.10;83.20;;;;;;4996104;28;20104;-80
2023/03/30 04:57:20;;;;;;;5.28;2.63;;;11.20;83.30;;;;;;4995211;28;20030;-80
2023/03/30 04:59:46;;;;;;;4.97;2.55;;;11.10;83.20;;;;;;4994533;28;20057;-80
2023/03/30 05:02:14;;;;;;;4.32;2.45;;;11.20;83.20;;;;;;4994061;28;20026;-80
2023/03/30 05:04:40;;;;;;;5.72;2.90;;;11.10;83.20;;;;;;4995167;28;20030;-80
2023/03/30 05:07:07;;;;;;;5.10;2.60;;;11.30;83.30;;;;;;4994792;28;20026;-81
2023/03/30 05:09:33;;;;;;;4.80;2.53;;;11.20;83.30;;;;;;4995177;28;20470;-80
2023/03/30 05:12:28;;;;;;;5.78;2.70;;;11.20;83.20;;;;;;5222643;23;20025;-81
2023/03/30 05:18:45;;;;;;;6.05;2.25;;;11.20;83.30;;;;;;4957988;28;20031;-81
2023/03/30 05:28:06;;;;;;;5.00;2.53;;;11.20;83.20;;;;;;4877931;29;20068;-81
2023/03/30 05:30:55;;;;;;;4.13;2.47;;;11.20;83.20;;;;;;4878567;29;20048;-79
2023/03/30 05:40:36;;;;;;;4.68;2.35;;;11.20;83.40;;;;;;4854989;29;20085;-80
2023/03/30 05:43:46;;;;;;;5.35;2.60;;;11.30;83.20;;;;;;4822520;29;20046;-79
2023/03/30 05:46:17;;;;;;;;;;;11.20;83.30;;;;;;4840234;29;20079;-80
2023/03/30 05:49:40;;;;;;;5.38;2.55;;;11.60;83.50;;;;;;4905836;29;19994;-82
2023/03/30 05:57:10;;;;;;;4.45;2.30;;;11.20;83.30;;;;;;4965234;28;20106;-82
2023/03/30 05:59:41;;;;;;;5.10;2.40;;;11.20;83.30;;;;;;4984891;28;20034;-80
2023/03/30 06:02:11;;;;;;;4.65;2.40;;;11.20;83.30;;;;;;4959878;28;20067;-82
2023/03/30 06:05:24;;;;;;;5.20;2.55;;;12.80;84.20;;;;;;4968275;28;20027;-83
2023/03/30 06:31:50;;;;;;;5.20;2.55;;;11.20;83.30;;;;;;4907563;29;20075;-83
2023/03/30 06:34:22;;;;;;;4.57;2.13;;;11.20;83.20;;;;;;4965040;28;20045;-82
2023/03/30 06:36:47;;;;;;;4.70;2.17;;;11.20;83.20;;;;;;4970561;28;20039;-79
2023/03/30 06:39:22;;;;;;;4.78;2.20;;;11.30;83.30;;;;;;4974232;28;20501;-83
2023/03/30 06:42:03;;;;;;;4.00;2.10;;;11.20;83.20;;;;;;4973605;28;20511;-81
2023/03/30 06:44:38;;;;;;;5.03;2.20;;;11.30;83.20;;;;;;4971870;28;20035;-81
2023/03/30 06:50:40;;;;;;;3.90;2.10;;;11.40;83.10;;;;;;4971797;28;20428;-80
2023/03/30 06:53:06;;;;;;;3.85;2.05;;;11.70;83.20;;;;;;4973750;28;20117;-80
2023/03/30 06:55:38;;;;;;;4.85;2.08;;;11.40;83.10;;;;;;4972928;28;20111;-81
2023/03/30 06:58:20;;;;;;;;;;;11.30;83.00;;;;;;4973693;28;20146;-81
2023/03/30 07:04:26;;;;;;;3.40;1.88;;;11.30;83.00;;;;;;4887177;29;20048;-83
2023/03/30 07:06:56;;;;;;;4.30;2.13;;;11.40;83.00;;;;;;4927585;28;20035;-83
2023/03/30 07:09:23;;;;;;;4.18;2.03;;;11.30;83.00;;;;;;4974662;28;20077;-83
2023/03/30 07:11:49;;;;;;;8.77;2.25;;;11.30;83.20;;;;;;4974580;28;20118;-84
2023/03/30 07:14:15;;;;;;;4.70;2.15;;;11.30;83.10;;;;;;4983658;28;20050;-86
2023/03/30 07:16:40;;;;;;;4.10;2.00;;;11.30;83.20;;;;;;4992569;28;20037;-85
2023/03/30 07:19:06;;;;;;;3.80;1.90;;;11.30;83.20;;;;;;4991547;28;20019;-85
2023/03/30 07:21:32;;;;;;;4.63;2.17;;;11.30;83.20;;;;;;4990396;28;20050;-85
2023/03/30 07:24:00;;;;;;;4.55;2.10;;;11.30;83.10;;;;;;4989453;28;20027;-85
2023/03/30 07:26:27;;;;;;;3.08;1.77;;;11.30;83.10;;;;;;4990729;28;20019;-85
2023/03/30 07:28:53;;;;;;;4.85;2.00;;;11.30;83.10;;;;;;4988410;28;20038;-84
2023/03/30 07:31:20;;;;;;;3.45;1.92;;;11.30;83.00;;;;;;4988657;28;20026;-82
2023/03/30 07:33:46;;;;;;;4.00;1.95;;;11.30;83.10;;;;;;4986059;28;20078;-85
2023/03/30 07:36:12;;;;;;;4.72;1.80;;;11.30;83.00;;;;;;4988796;28;20027;-84
2023/03/30 07:38:37;;;;;;;3.55;1.60;;;11.30;83.00;;;;;;4983779;28;20087;-84
2023/03/30 07:41:12;;;;;;;4.43;2.10;;;11.40;83.10;;;;;;4988355;28;20023;-85
2023/03/30 07:43:40;;;;;;;4.20;2.00;;;11.40;83.00;;;;;;4987830;28;20023;-85
2023/03/30 07:46:08;;;;;;;4.10;2.03;;;11.40;83.50;;;;;;4986342;28;20549;-85
2023/03/30 07:48:34;;;;;;;3.42;1.98;;;11.40;83.00;;;;;;4985106;28;20030;-84
2023/03/30 07:51:05;;;;;;;5.53;2.20;;;11.30;82.90;;;;;;4985526;28;20530;-86
2023/03/30 07:53:32;;;;;;;3.38;1.90;;;11.40;82.90;;;;;;4984701;28;20031;-85
2023/03/30 07:55:57;;;;;;;4.18;1.90;;;11.40;82.90;;;;;;4984195;28;20097;-85
2023/03/30 07:58:23;;;;;;;4.13;2.00;;;11.50;82.60;;;;;;4984247;28;20431;-84
2023/03/30 08:00:48;;;;;;;3.95;2.03;;;11.50;82.40;;;;;;4983819;28;20027;-85
2023/03/30 08:03:14;;;;;;;2.80;1.65;;;11.60;82.20;;;;;;4978856;28;20113;-84
2023/03/30 08:05:40;;;;;;;4.32;2.00;;;11.70;82.00;;;;;;4991113;28;20090;-85
2023/03/30 08:08:06;;;;;;;5.20;2.00;;;11.70;81.90;;;;;;4991080;28;20051;-85
2023/03/30 08:10:33;;;;;;;5.18;1.88;;;11.70;81.80;;;;;;4979775;28;20447;-83
2023/03/30 08:12:58;;;;;;;4.70;2.60;;;11.70;82.30;;;;;;4978842;28;20033;-85
2023/03/30 08:15:24;;;;;;;4.80;2.35;;;11.60;81.90;;;;;;4989234;28;20031;-84
2023/03/30 08:17:49;;;;;;;4.45;2.20;;;11.70;82.00;;;;;;4988481;28;20050;-84
2023/03/30 08:20:15;;;;;;;4.65;2.30;;;11.70;81.90;;;;;;4986815;28;20483;-84
2023/03/30 08:22:40;;;;;;;5.13;2.53;;;11.70;81.70;;;;;;4987377;28;20494;-84
2023/03/30 08:25:06;;;;;;;9.73;4.80;;;11.70;81.40;;;;;;4987653;28;20497;-84
2023/03/30 08:27:32;;;;;;;10.35;5.20;;;11.70;81.40;;;;;;4967822;29;20023;-85
2023/03/30 08:29:57;;;;;;;13.13;6.35;;;11.70;81.60;;;;;;4967267;29;20034;-85
2023/03/30 08:32:23;;;;;;;11.73;5.38;;;11.70;81.70;;;;;;4966893;28;20027;-85
2023/03/30 08:34:49;;;;;;;10.15;5.05;;;11.70;81.80;;;;;;4958272;29;20051;-83
2023/03/30 08:37:14;;;;;;;11.00;5.82;;;11.60;82.00;;;;;;4958522;29;20031;-85
2023/03/30 08:39:40;;;;;;;16.05;8.32;;;11.70;82.10;;;;;;4965659;29;20043;-84
2023/03/30 08:42:27;;;;;;;14.85;8.15;;;11.70;82.30;;;;;;4964693;28;20023;-84
2023/03/30 08:44:55;;;;;;;15.13;7.78;;;11.60;82.20;;;;;;4964004;29;20054;-84
2023/03/30 08:47:31;;;;;;;17.05;9.68;;;11.60;82.20;;;;;;4964093;29;20023;-84
2023/03/30 08:50:21;;;;;;;16.70;9.40;;;11.60;82.30;;;;;;4962856;29;20031;-84
2023/03/30 08:52:47;;;;;;;14.82;8.35;;;11.60;82.30;;;;;;4963575;28;20054;-84
2023/03/30 08:55:35;;;;;;;17.40;9.50;;;11.60;82.40;;;;;;4962555;29;20500;-85
2023/03/30 08:58:39;;;;;;;19.80;10.50;;;11.60;82.40;;;;;;4958171;29;20034;-84
2023/03/30 09:01:24;;;;;;;19.42;11.07;;;11.60;82.40;;;;;;4961527;28;20023;-83
2023/03/30 09:04:08;;;;;;;19.60;11.27;;;11.40;82.50;;;;;;4961267;29;20043;-85
2023/03/30 09:06:58;;;;;;;18.38;10.73;;;11.60;82.50;;;;;;4960558;29;20511;-84
2023/03/30 09:09:34;;;;;;;19.50;10.67;;;11.60;82.50;;;;;;4959788;29;20348;-83
2023/03/30 09:12:27;;;;;;;23.48;13.13;;;11.50;82.50;;;;;;4957539;28;20023;-83
2023/03/30 09:14:58;;;;;;;21.25;11.63;;;11.50;82.60;;;;;;4953211;29;20039;-84
2023/03/30 09:17:32;;;;;;;20.60;12.07;;;11.50;82.60;;;;;;4959639;29;20031;-84
2023/03/30 09:20:11;;;;;;;22.42;13.05;;;11.50;82.60;;;;;;4959001;29;20047;-84
2023/03/30 09:22:40;;;;;;;23.60;13.40;;;11.50;82.60;;;;;;4958415;28;20448;-83
2023/03/30 09:25:16;;;;;;;23.60;13.35;;;11.50;82.70;;;;;;4958528;29;20054;-82
2023/03/30 09:27:52;;;;;;;25.27;15.35;;;11.50;82.80;;;;;;4957905;29;20027;-84
2023/03/30 09:30:25;;;;;;;31.33;16.95;;;11.50;82.80;;;;;;4960152;29;20106;-84
2023/03/30 09:33:09;;;;;;;28.00;17.02;;;11.50;82.80;;;;;;4957270;28;20469;-84
2023/03/30 09:35:42;;;;;;;32.13;18.20;;;11.50;82.90;;;;;;4957653;29;20035;-83
2023/03/30 09:38:11;;;;;;;31.38;18.20;;;11.50;82.90;;;;;;4957376;29;20023;-83
2023/03/30 09:41:05;;;;;;;32.53;19.10;;;11.50;82.90;;;;;;4952999;29;20031;-84
2023/03/30 09:43:43;;;;;;;30.77;17.70;;;11.50;82.80;;;;;;4953630;28;20027;-83
2023/03/30 09:46:08;;;;;;;30.15;17.08;;;11.50;82.80;;;;;;4953525;29;20114;-83
2023/03/30 09:48:38;;;;;;;29.27;17.88;;;11.50;82.80;;;;;;4956741;29;20059;-83
2023/03/30 09:51:14;;;;;;;29.63;17.52;;;11.50;82.60;;;;;;4952825;28;20027;-85
2023/03/30 09:53:42;;;;;;;32.63;19.65;;;11.40;82.50;;;;;;4953441;29;20114;-84
2023/03/30 09:56:16;;;;;;;38.47;22.60;;;11.70;82.60;;;;;;4953014;29;20396;-83
2023/03/30 09:58:41;;;;;;;47.55;31.63;;;11.70;82.10;;;;;;4952476;29;20027;-83
2023/03/30 10:01:13;;;;;;;43.13;26.90;;;11.80;81.70;;;;;;4952380;29;20042;-85
2023/03/30 10:03:40;;;;;;;;;;;11.90;81.30;;;;;;4953237;29;20027;-84
2023/03/30 10:06:20;;;;;;;38.75;23.38;;;12.00;81.10;;;;;;4952503;29;19913;-84
2023/03/30 10:08:56;;;;;;;37.03;23.70;;;12.00;81.00;;;;;;4986744;23;20043;-83
2023/03/30 10:11:44;;;;;;;43.95;28.98;;;12.10;80.80;;;;;;4951899;28;20488;-84
2023/03/30 10:14:25;;;;;;;37.15;23.35;;;12.20;80.70;;;;;;4957435;28;20031;-84
2023/03/30 10:16:50;;;;;;;37.83;23.05;;;12.20;80.60;;;;;;4972364;28;20381;-85
2023/03/30 10:19:19;;;;;;;35.20;22.10;;;12.20;80.40;;;;;;4956009;29;20112;-83
2023/03/30 10:21:45;;;;;;;35.72;23.00;;;12.20;80.40;;;;;;4956071;29;20089;-84
2023/03/30 10:24:13;;;;;;;33.53;21.20;;;12.20;80.50;;;;;;4955993;29;20019;-84
2023/03/30 10:26:44;;;;;;;33.05;21.95;;;12.20;80.60;;;;;;4955793;29;20027;-84
2023/03/30 10:29:17;;;;;;;32.60;21.08;;;12.10;80.60;;;;;;4956948;28;20035;-84
2023/03/30 10:31:46;;;;;;;34.92;21.98;;;12.10;80.40;;;;;;4957222;28;20455;-84
2023/03/30 10:34:29;;;;;;;36.65;23.25;;;12.20;80.40;;;;;;4956577;29;20030;-84
2023/03/30 10:36:55;;;;;;;35.88;22.42;;;12.30;80.40;;;;;;4955847;29;20460;-84
2023/03/30 10:39:31;;;;;;;40.42;27.15;;;12.30;80.30;;;;;;4956891;28;20034;-84
2023/03/30 10:42:00;;;;;;;39.33;24.15;;;12.30;80.40;;;;;;4955572;29;20023;-84
2023/03/30 10:45:00;;;;;;;38.95;25.63;;;12.20;80.40;;;;;;4955621;29;20038;-83
2023/03/30 10:47:55;;;;;;;38.47;23.80;;;12.30;80.50;;;;;;4953503;28;20619;-84
2023/03/30 10:50:26;;;;;;;40.95;24.88;;;12.20;80.70;;;;;;4955266;29;20444;-83
2023/03/30 10:53:01;;;;;;;;;;;12.10;80.70;;;;;;4956081;29;20027;-84
2023/03/30 10:55:41;;;;;;;34.75;22.73;;;12.10;80.80;;;;;;4955417;29;19906;-84
2023/03/30 10:58:17;;;;;;;38.28;24.63;;;12.20;80.90;;;;;;4955779;29;20050;-83
2023/03/30 11:01:28;;;;;;;35.95;23.90;;;12.20;80.90;;;;;;4955116;29;20113;-84
2023/03/30 11:04:02;;;;;;;37.22;24.55;;;12.20;80.90;;;;;;4956498;29;20035;-83
2023/03/30 11:06:37;;;;;;;38.67;25.05;;;12.20;80.90;;;;;;4955572;29;20488;-84
2023/03/30 11:09:04;;;;;;;39.13;24.77;;;12.20;80.90;;;;;;4956525;28;20042;-85
2023/03/30 11:11:51;;;;;;;36.20;24.40;;;12.20;80.90;;;;;;4956099;28;20488;-84
2023/03/30 11:14:24;;;;;;;40.63;27.45;;;12.20;80.90;;;;;;4955293;29;20118;-84
2023/03/30 11:17:07;;;;;;;39.58;26.52;;;12.20;81.00;;;;;;4954900;29;20035;-84
2023/03/30 11:19:45;;;;;;;40.70;26.50;;;12.10;81.10;;;;;;4956162;28;20095;-84
2023/03/30 11:22:25;;;;;;;43.20;28.20;;;12.10;81.20;;;;;;4955095;29;20507;-85
2023/03/30 11:24:53;;;;;;;38.40;25.52;;;12.20;81.30;;;;;;4956006;28;20032;-85
2023/03/30 11:27:28;;;;;;;38.03;26.00;;;12.10;81.20;;;;;;4955132;29;20031;-85
2023/03/30 11:30:18;;;;;;;38.80;26.52;;;12.10;81.20;;;;;;4954843;29;20042;-84
2023/03/30 11:32:52;;;;;;;44.05;27.85;;;12.10;81.30;;;;;;4954883;29;20027;-84
2023/03/30 11:35:32;;;;;;;40.13;27.67;;;12.10;81.40;;;;;;4955907;28;20082;-84
2023/03/30 11:37:57;;;;;;;39.35;26.90;;;12.10;81.50;;;;;;4954700;29;20035;-84
2023/03/30 11:40:34;;;;;;;43.60;28.65;;;12.10;81.50;;;;;;4955739;29;20042;-84
2023/03/30 11:43:00;;;;;;;40.97;28.67;;;12.00;81.50;;;;;;4956123;28;20102;-83
2023/03/30 11:46:02;;;;;;;43.47;29.23;;;12.00;81.60;;;;;;4955947;28;20051;-84
2023/03/30 11:49:05;;;;;;;41.63;27.98;;;12.00;81.60;;;;;;4944624;28;20035;-85
2023/03/30 11:52:00;;;;;;;42.85;28.83;;;12.00;81.70;;;;;;4954512;29;20026;-86
2023/03/30 11:54:34;;;;;;;41.78;27.75;;;12.00;81.70;;;;;;4954437;29;20504;-83
2023/03/30 11:57:34;;;;;;;41.30;27.25;;;12.00;81.80;;;;;;4954658;29;20377;-84
2023/03/30 12:00:18;;;;;;;40.58;28.17;;;12.00;81.80;;;;;;4954340;29;20444;-85
2023/03/30 12:03:13;;;;;;;40.53;27.58;;;11.90;81.90;;;;;;4954289;29;20395;-84
2023/03/30 12:05:55;;;;;;;41.80;28.02;;;11.90;81.90;;;;;;4955327;29;20046;-83
2023/03/30 12:08:41;;;;;;;40.15;27.63;;;12.00;81.90;;;;;;4954037;29;20121;-84
2023/03/30 12:11:28;;;;;;;41.42;27.85;;;12.00;81.90;;;;;;4954248;29;20038;-85
2023/03/30 12:13:54;;;;;;;40.08;28.05;;;12.00;81.80;;;;;;4955167;29;20515;-84
2023/03/30 12:16:30;;;;;;;42.42;27.90;;;12.00;81.80;;;;;;4954108;29;20066;-85
2023/03/30 12:19:05;;;;;;;39.20;27.50;;;12.00;81.60;;;;;;4955452;28;20507;-84
2023/03/30 12:21:32;;;;;;;42.60;28.73;;;12.10;81.40;;;;;;4953924;29;20027;-84
2023/03/30 12:24:24;;;;;;;38.58;26.73;;;12.10;81.20;;;;;;4953969;29;20119;-83
2023/03/30 12:26:51;;;;;;;40.65;26.83;;;12.20;81.00;;;;;;4954988;29;20114;-84
2023/03/30 12:29:18;;;;;;;40.13;27.95;;;12.20;81.00;;;;;;4953807;29;20399;-84
2023/03/30 12:31:57;;;;;;;39.72;27.92;;;12.20;81.00;;;;;;4953629;29;20031;-83
2023/03/30 12:34:26;;;;;;;40.00;27.67;;;12.20;81.10;;;;;;4953625;28;20062;-85
2023/03/30 12:37:05;;;;;;;38.83;26.92;;;12.20;81.10;;;;;;4954362;28;20028;-84
2023/03/30 12:39:52;;;;;;;39.20;27.73;;;12.10;81.30;;;;;;4953574;29;20027;-85
2023/03/30 12:42:33;;;;;;;37.40;25.98;;;12.10;81.40;;;;;;4953634;29;20027;-85
2023/03/30 12:45:10;;;;;;;39.22;26.90;;;12.10;81.40;;;;;;4953744;29;20078;-86
2023/03/30 12:47:52;;;;;;;38.28;27.02;;;12.10;81.50;;;;;;4953108;29;20027;-85
2023/03/30 12:50:36;;;;;;;42.38;28.10;;;12.10;81.60;;;;;;4953603;29;20122;-83
2023/03/30 12:53:31;;;;;;;41.30;27.13;;;12.00;81.60;;;;;;4953589;29;20082;-84
2023/03/30 12:56:03;;;;;;;39.17;26.27;;;12.00;81.70;;;;;;4953115;29;20031;-84
2023/03/30 12:59:00;;;;;;;38.80;26.70;;;12.10;81.70;;;;;;4953374;29;20511;-83
2023/03/30 13:01:45;;;;;;;37.00;25.70;;;12.10;81.60;;;;;;4953339;29;20028;-85
2023/03/30 13:04:21;;;;;;;38.28;26.15;;;12.10;81.40;;;;;;4953479;29;20020;-84
2023/03/30 13:06:59;;;;;;;36.70;25.33;;;12.10;81.30;;;;;;4953394;29;20027;-85
2023/03/30 13:09:26;;;;;;;35.83;25.00;;;12.20;81.30;;;;;;4953225;29;20035;-84
2023/03/30 13:11:51;;;;;;;35.10;24.38;;;12.20;81.20;;;;;;4952679;29;20515;-85
2023/03/30 13:14:44;;;;;;;35.40;24.63;;;12.20;81.10;;;;;;4953175;29;20027;-84
2023/03/30 13:17:15;;;;;;;36.67;24.92;;;12.20;81.10;;;;;;4953326;29;20034;-84
2023/03/30 13:20:04;;;;;;;34.13;23.95;;;12.20;81.10;;;;;;4952996;29;20029;-84
2023/03/30 13:22:31;;;;;;;35.75;23.83;;;12.20;81.20;;;;;;4952858;29;20567;-84
2023/03/30 13:25:00;;;;;;;35.60;24.02;;;12.20;81.20;;;;;;4952890;29;20027;-84
2023/03/30 13:27:28;;;;;;;34.92;23.83;;;12.10;81.20;;;;;;4952737;29;20156;-84
2023/03/30 13:30:06;;;;;;;36.17;23.40;;;12.10;81.30;;;;;;4953790;28;20086;-84
2023/03/30 13:33:11;;;;;;;32.70;22.55;;;12.10;81.30;;;;;;4952678;29;20115;-84
2023/03/30 13:36:07;;;;;;;32.60;22.83;;;12.20;81.40;;;;;;4952898;29;20043;-84
2023/03/30 13:39:02;;;;;;;31.38;22.38;;;12.10;81.40;;;;;;4952913;29;20073;-84
2023/03/30 13:41:41;;;;;;;33.33;22.05;;;12.10;81.30;;;;;;4952586;29;20297;-84
2023/03/30 13:44:31;;;;;;;29.85;20.90;;;12.10;81.30;;;;;;4952943;29;20019;-84
2023/03/30 13:47:23;;;;;;;32.00;21.63;;;12.20;81.40;;;;;;4954429;28;20046;-84
2023/03/30 13:49:57;;;;;;;30.45;21.05;;;12.10;81.40;;;;;;4957871;28;20122;-85
2023/03/30 13:52:39;;;;;;;32.00;21.75;;;12.10;81.40;;;;;;4956702;29;20071;-84
2023/03/30 13:55:20;;;;;;;31.88;21.17;;;12.10;81.50;;;;;;4957943;28;20109;-84
2023/03/30 13:57:46;;;;;;;32.80;22.33;;;12.10;81.60;;;;;;4956551;29;20035;-83
2023/03/30 14:00:38;;;;;;;30.90;19.90;;;12.10;81.60;;;;;;4957693;28;20023;-83
2023/03/30 14:03:32;;;;;;;30.73;20.45;;;12.10;81.70;;;;;;4956404;29;20042;-84
2023/03/30 14:06:07;;;;;;;29.42;20.17;;;12.10;81.70;;;;;;4956666;29;20314;-83
2023/03/30 14:08:36;;;;;;;30.48;20.58;;;12.10;81.70;;;;;;4956413;29;20039;-82